Time;durP1;ratioP1;P1;durP2;ratioP2;P2;SDS_P1;SDS_P2;PMS_P1;PMS_P2;Temp;Humidity;BMP_temperature;BMP_pressure;BME280_temperature;BME280_humidity;BME280_pressure;Samples;Min_cycle;Max_cycle;Signal;HPM_P1;HPM_P2
2022/01/12 00:00:32;;;;;;;54.90;27.88;;;;;;;;;;5230106;28;20044;-33
2022/01/12 00:03:05;;;;;;;57.85;29.30;;;;;;;;;;5224058;28;20071;-34
2022/01/12 00:05:38;;;;;;;59.75;28.25;;;;;;;;;;5232706;28;20047;-33
2022/01/12 00:08:11;;;;;;;59.55;29.65;;;;;;;;;;5223298;28;20567;-33
2022/01/12 00:10:44;;;;;;;60.93;29.53;;;;;;;;;;5226098;28;20055;-33
2022/01/12 00:13:17;;;;;;;58.38;29.73;;;;;;;;;;5179905;22;20632;-84
2022/01/12 00:15:50;;;;;;;60.42;29.02;;;;;;;;;;5174825;28;20060;-85
2022/01/12 00:18:23;;;;;;;62.95;30.55;;;;;;;;;;5197415;28;20046;-84
2022/01/12 00:20:56;;;;;;;63.58;29.92;;;;;;;;;;5185202;28;20048;-83
2022/01/12 00:23:28;;;;;;;58.25;28.63;;;;;;;;;;5174515;28;20517;-83
2022/01/12 00:34:54;;;;;;;59.15;29.88;;;;;;;;;;5172006;28;20052;-84
2022/01/12 00:37:27;;;;;;;61.45;30.45;;;;;;;;;;5179855;28;20049;-83
2022/01/12 00:40:00;;;;;;;62.30;28.93;;;;;;;;;;5168471;28;20048;-83
2022/01/12 00:42:33;;;;;;;58.60;29.73;;;;;;;;;;5163647;28;20056;-83
2022/01/12 00:45:08;;;;;;;61.33;28.73;;;;;;;;;;5186904;28;20046;-81
2022/01/12 00:47:41;;;;;;;60.38;28.25;;;;;;;;;;5176740;28;20383;-85
2022/01/12 00:50:14;;;;;;;58.90;29.88;;;;;;;;;;5186717;28;20049;-83
2022/01/12 00:52:48;;;;;;;58.07;29.13;;;;;;;;;;5187573;28;21462;-83
2022/01/12 00:55:20;;;;;;;;;;;0.80;99.90;;;;;;5190001;28;20296;-83
2022/01/12 00:57:55;;;;;;;58.80;28.67;;;;;;;;;;5189161;28;19929;-84
2022/01/12 01:00:28;;;;;;;60.42;29.00;;;0.80;99.90;;;;;;5160023;28;20064;-84
2022/01/12 01:03:02;;;;;;;64.80;31.27;;;;;;;;;;5163159;28;20429;-82
2022/01/12 01:05:35;;;;;;;64.43;30.50;;;;;;;;;;5177078;28;20796;-84
2022/01/12 01:08:08;;;;;;;56.47;28.50;;;0.80;99.90;;;;;;5191396;28;20561;-82
2022/01/12 01:10:48;;;;;;;50.08;23.08;;;;;;;;;;5187560;28;20303;-83
2022/01/12 01:13:33;;;;;;;60.50;28.63;;;0.70;99.90;;;;;;5188427;28;20053;-84
2022/01/12 01:16:31;;;;;;;61.60;29.73;;;;;;;;;;5150464;28;20045;-83
2022/01/12 01:27:40;;;;;;;61.60;31.30;;;;;;;;;;5171032;28;20562;-85
2022/01/12 01:30:15;;;;;;;62.13;30.75;;;;;;;;;;5160496;28;20049;-83
2022/01/12 01:32:49;;;;;;;54.80;27.65;;;;;;;;;;5173535;28;20060;-83
2022/01/12 01:35:26;;;;;;;68.87;31.90;;;;;;;;;;5192241;28;20045;-84
2022/01/12 01:38:01;;;;;;;64.38;29.58;;;0.50;99.90;;;;;;5159475;28;20056;-84
2022/01/12 01:40:37;;;;;;;62.35;28.92;;;0.40;99.90;;;;;;5186008;28;20528;-83
2022/01/12 01:44:09;;;;;;;56.75;27.65;;;0.40;99.90;;;;;;5159376;28;20063;-83
2022/01/12 01:54:39;;;;;;;64.57;30.17;;;;;;;;;;5154007;28;20056;-83
2022/01/12 01:57:13;;;;;;;65.07;30.10;;;0.20;99.90;;;;;;5185775;28;20045;-84
2022/01/12 01:59:48;;;;;;;61.20;30.10;;;;;;;;;;5167794;28;20037;-83
2022/01/12 02:02:21;;;;;;;47.42;23.27;;;;;;;;;;5168879;28;20046;-83
2022/01/12 02:04:54;;;;;;;63.35;29.58;;;;;;;;;;5145835;28;20064;-82
2022/01/12 02:07:27;;;;;;;59.35;28.88;;;;;;;;;;5165719;28;20041;-82
2022/01/12 02:10:02;;;;;;;65.95;29.92;;;0.20;99.90;;;;;;5178349;28;20068;-82
2022/01/12 02:12:44;;;;;;;60.83;29.30;;;;;;;;;;5151530;28;20057;-84
2022/01/12 02:15:22;;;;;;;62.27;29.77;;;0.10;99.90;;;;;;5189449;28;20041;-82
2022/01/12 02:18:16;;;;;;;61.25;29.10;;;;;;;;;;5172610;28;20149;-83
2022/01/12 02:35:48;;;;;;;62.95;29.55;;;-0.20;99.90;;;;;;5191918;28;20041;-83
2022/01/12 02:40:55;;;;;;;66.07;31.40;;;;;;;;;;5192003;28;20041;-85
2022/01/12 02:43:42;;;;;;;59.25;29.77;;;;;;;;;;5174995;28;20045;-83
2022/01/12 02:54:53;;;;;;;62.80;30.55;;;-0.40;99.90;;;;;;5175236;28;20052;-82
2022/01/12 02:57:30;;;;;;;64.53;29.70;;;;;;;;;;5166545;28;20104;-83
2022/01/12 03:00:11;;;;;;;64.90;31.02;;;-0.20;99.90;;;;;;5183694;28;20068;-83
2022/01/12 03:02:50;;;;;;;59.15;28.55;;;;;;;;;;5162955;28;20064;-83
2022/01/12 03:05:34;;;;;;;60.85;28.63;;;;;;;;;;5157373;28;20046;-81
2022/01/12 03:08:13;;;;;;;64.05;29.83;;;;;;;;;;5160360;28;20045;-84
2022/01/12 03:10:47;;;;;;;59.03;27.88;;;;;;;;;;5185451;28;20053;-82
2022/01/12 03:13:20;;;;;;;67.03;28.17;;;;;;;;;;5183851;28;20055;-82
2022/01/12 03:15:52;;;;;;;60.20;29.17;;;;;;;;;;5171746;28;20045;-83
2022/01/12 03:18:27;;;;;;;70.20;30.85;;;;;;;;;;5189146;28;20056;-82
2022/01/12 03:21:00;;;;;;;62.50;30.57;;;;;;;;;;5185484;28;20033;-80
2022/01/12 03:23:33;;;;;;;64.57;30.57;;;;;;;;;;5167688;28;20053;-84
2022/01/12 03:26:07;;;;;;;;;;;-0.20;99.90;;;;;;5172355;28;20307;-84
2022/01/12 03:28:41;;;;;;;59.85;28.80;;;-0.20;99.90;;;;;;5188136;28;20442;-84
2022/01/12 03:31:19;;;;;;;67.70;30.88;;;;;;;;;;5151470;28;20048;-84
2022/01/12 03:39:14;;;;;;;68.88;32.53;;;-0.10;99.90;;;;;;5184377;28;20058;-82
2022/01/12 03:41:49;;;;;;;65.65;30.90;;;;;;;;;;5165749;28;20048;-81
2022/01/12 03:44:22;;;;;;;65.78;30.58;;;;;;;;;;5193399;28;20048;-83
2022/01/12 03:46:55;;;;;;;51.83;25.57;;;;;;;;;;5159307;28;20050;-81
2022/01/12 03:49:28;;;;;;;74.25;34.72;;;;;;;;;;5201161;28;20296;-83
2022/01/12 03:52:01;;;;;;;73.20;32.93;;;;;;;;;;5174594;28;20041;-82
2022/01/12 03:54:34;;;;;;;69.03;31.37;;;;;;;;;;5192069;28;20053;-81
2022/01/12 03:57:07;;;;;;;70.90;32.67;;;;;;;;;;5159470;28;20049;-83
2022/01/12 03:59:39;;;;;;;70.18;33.05;;;;;;;;;;5147290;28;20798;-83
2022/01/12 04:02:13;;;;;;;;;;;0.00;99.90;;;;;;5174460;28;20048;-83
2022/01/12 04:05:09;;;;;;;71.83;31.43;;;;;;;;;;5164937;28;19928;-83
2022/01/12 04:10:34;;;;;;;73.32;33.22;;;;;;;;;;5178388;28;20075;-82
2022/01/12 04:13:07;;;;;;;76.95;34.70;;;;;;;;;;5184064;28;20539;-83
2022/01/12 04:15:46;;;;;;;83.38;35.70;;;0.00;99.90;;;;;;5166071;28;20045;-83
2022/01/12 04:18:19;;;;;;;84.63;37.13;;;;;;;;;;5199985;28;20037;-81
2022/01/12 04:20:52;;;;;;;81.67;35.17;;;;;;;;;;5164023;28;20042;-82
2022/01/12 04:23:25;;;;;;;74.75;33.85;;;;;;;;;;5192374;28;20041;-82
2022/01/12 04:25:59;;;;;;;;;;;-0.10;99.90;;;;;;5167031;28;20041;-83
2022/01/12 04:28:32;;;;;;;77.68;33.22;;;;;;;;;;5183218;28;19931;-83
2022/01/12 04:31:05;;;;;;;83.37;35.03;;;0.10;99.90;;;;;;5163373;28;20053;-82
2022/01/12 04:33:39;;;;;;;80.90;35.70;;;0.00;99.90;;;;;;5201947;28;20052;-84
2022/01/12 04:36:14;;;;;;;83.07;34.95;;;0.00;99.90;;;;;;5175576;28;20045;-83
2022/01/12 04:38:47;;;;;;;83.68;35.70;;;;;;;;;;5166810;28;20045;-81
2022/01/12 04:41:22;;;;;;;86.18;37.10;;;-0.10;99.90;;;;;;5159030;28;20046;-82
2022/01/12 04:43:56;;;;;;;80.22;34.70;;;;;;;;;;5153270;28;20528;-80
2022/01/12 04:46:38;;;;;;;90.55;38.70;;;;;;;;;;5181338;28;20045;-82
2022/01/12 04:52:10;;;;;;;83.57;35.47;;;;;;;;;;5129722;28;20416;-80
2022/01/12 04:54:44;;;;;;;88.72;36.33;;;;;;;;;;5176530;28;20052;-82
2022/01/12 04:57:17;;;;;;;78.25;33.60;;;;;;;;;;5165701;28;20045;-83
2022/01/12 05:00:05;;;;;;;79.93;35.17;;;;;;;;;;5172775;28;20046;-82
2022/01/12 05:14:04;;;;;;;84.15;34.78;;;;;;;;;;5153179;28;20057;-80
2022/01/12 05:16:37;;;;;;;75.53;33.57;;;;;;;;;;5177647;28;20041;-81
2022/01/12 05:19:10;;;;;;;68.07;31.10;;;;;;;;;;5159931;28;20388;-82
2022/01/12 05:21:43;;;;;;;80.28;33.75;;;;;;;;;;5181692;28;20037;-81
2022/01/12 05:24:16;;;;;;;67.50;32.35;;;;;;;;;;5181243;28;20056;-82
2022/01/12 05:26:49;;;;;;;73.78;31.48;;;;;;;;;;5162663;28;20053;-82
2022/01/12 05:29:22;;;;;;;75.10;32.57;;;;;;;;;;5174441;28;20179;-81
2022/01/12 05:31:56;;;;;;;75.15;31.73;;;;;;;;;;5158766;28;20326;-82
2022/01/12 05:34:31;;;;;;;67.30;30.80;;;;;;;;;;5158997;28;20053;-81
2022/01/12 05:37:04;;;;;;;73.18;31.73;;;;;;;;;;5166234;28;20044;-82
2022/01/12 05:39:39;;;;;;;70.25;30.70;;;;;;;;;;5172055;28;20044;-82
2022/01/12 05:42:31;;;;;;;77.43;31.35;;;;;;;;;;5160099;28;20076;-83
2022/01/12 05:45:05;;;;;;;72.00;32.93;;;0.00;99.90;;;;;;5172645;28;20057;-81
2022/01/12 05:50:20;;;;;;;68.57;31.00;;;0.00;99.90;;;;;;5187756;28;20041;-82
2022/01/12 05:52:53;;;;;;;72.53;30.42;;;;;;;;;;5162553;28;20063;-82
2022/01/12 05:55:26;;;;;;;69.63;30.23;;;;;;;;;;5177950;28;20520;-81
2022/01/12 05:58:00;;;;;;;66.22;29.60;;;;;;;;;;5184892;28;20314;-82
2022/01/12 06:00:33;;;;;;;65.22;29.02;;;;;;;;;;5170237;28;20084;-82
2022/01/12 06:03:07;;;;;;;62.97;27.88;;;;;;;;;;5135797;28;20060;-81
2022/01/12 06:05:41;;;;;;;61.92;26.73;;;;;;;;;;5161221;28;20703;-83
2022/01/12 06:08:15;;;;;;;58.70;26.88;;;;;;;;;;5157384;28;20059;-81
2022/01/12 06:10:47;;;;;;;65.90;28.57;;;;;;;;;;5163425;28;20053;-82
2022/01/12 06:13:21;;;;;;;60.15;27.42;;;;;;;;;;5147249;28;20330;-84
2022/01/12 06:15:54;;;;;;;49.97;22.70;;;;;;;;;;5167799;28;20044;-80
2022/01/12 06:18:28;;;;;;;51.47;23.67;;;;;;;;;;5144196;28;20045;-83
2022/01/12 06:21:01;;;;;;;56.08;24.38;;;;;;;;;;5182105;28;20052;-83
2022/01/12 06:23:49;;;;;;;46.45;21.80;;;;;;;;;;5188663;28;20045;-83
2022/01/12 06:26:25;;;;;;;46.50;23.33;;;;;;;;;;5165937;28;20063;-83
2022/01/12 06:31:45;;;;;;;49.03;22.48;;;0.20;99.90;;;;;;5176400;28;20057;-82
2022/01/12 06:34:18;;;;;;;54.42;24.63;;;;;;;;;;5167295;28;20049;-82
2022/01/12 06:36:51;;;;;;;51.72;24.83;;;;;;;;;;5140717;28;20053;-82
2022/01/12 06:39:25;;;;;;;51.65;26.20;;;;;;;;;;5172801;28;20509;-81
2022/01/12 06:41:58;;;;;;;;;;;0.00;99.90;;;;;;5188207;28;20045;-81
2022/01/12 06:44:31;;;;;;;55.72;24.15;;;;;;;;;;5173069;28;19929;-82
2022/01/12 06:47:05;;;;;;;55.38;25.40;;;;;;;;;;5169492;28;20408;-82
2022/01/12 06:49:38;;;;;;;60.67;23.58;;;;;;;;;;5186972;28;20060;-81
2022/01/12 06:52:11;;;;;;;58.70;24.10;;;;;;;;;;5164838;28;20060;-83
2022/01/12 06:54:44;;;;;;;49.67;23.75;;;;;;;;;;5191644;28;20057;-81
2022/01/12 06:57:17;;;;;;;55.67;23.92;;;;;;;;;;5193308;28;20041;-83
2022/01/12 06:59:50;;;;;;;;;;;0.00;99.90;;;;;;5190072;28;20045;-83
2022/01/12 07:02:24;;;;;;;56.15;23.75;;;;;;;;;;5162325;28;19929;-83
2022/01/12 07:04:59;;;;;;;46.67;22.52;;;;;;;;;;5159051;28;20045;-83
2022/01/12 07:07:31;;;;;;;45.33;23.83;;;;;;;;;;5158783;28;20056;-84
2022/01/12 07:10:10;;;;;;;50.90;22.83;;;;;;;;;;5166499;28;20913;-81
2022/01/12 07:12:46;;;;;;;45.70;21.95;;;;;;;;;;5195325;28;20057;-81
2022/01/12 07:15:18;;;;;;;46.97;22.77;;;;;;;;;;5192669;28;20424;-81
2022/01/12 07:17:51;;;;;;;57.58;24.77;;;;;;;;;;5149212;28;20040;-82
2022/01/12 07:20:24;;;;;;;55.47;24.80;;;;;;;;;;5173993;28;20045;-81
2022/01/12 07:22:57;;;;;;;49.93;23.57;;;;;;;;;;5175114;28;20049;-82
2022/01/12 07:25:30;;;;;;;46.97;23.40;;;;;;;;;;5168060;28;20387;-82
2022/01/12 07:28:04;;;;;;;53.58;24.08;;;;;;;;;;5185482;28;20072;-82
2022/01/12 07:30:36;;;;;;;50.85;21.50;;;;;;;;;;5178436;28;20080;-83
2022/01/12 07:33:15;;;;;;;45.67;22.13;;;;;;;;;;5143781;28;20060;-81
2022/01/12 07:35:48;;;;;;;42.83;20.70;;;;;;;;;;5175707;28;22274;-82
2022/01/12 07:38:21;;;;;;;48.25;22.13;;;;;;;;;;5186728;28;20057;-82
2022/01/12 07:40:53;;;;;;;47.07;22.53;;;;;;;;;;5155500;28;20049;-82
2022/01/12 07:43:26;;;;;;;49.40;22.60;;;;;;;;;;5137071;28;20053;-81
2022/01/12 07:45:59;;;;;;;46.75;20.45;;;;;;;;;;5173304;28;20515;-81
2022/01/12 07:48:32;;;;;;;46.27;22.43;;;;;;;;;;5193554;28;20049;-83
2022/01/12 07:51:05;;;;;;;44.00;21.47;;;;;;;;;;5191926;28;20045;-82
2022/01/12 07:53:37;;;;;;;45.57;21.53;;;;;;;;;;5196871;28;20119;-82
2022/01/12 07:56:10;;;;;;;49.63;22.63;;;;;;;;;;5156495;28;20046;-81
2022/01/12 07:58:43;;;;;;;44.33;21.35;;;;;;;;;;5168957;28;21105;-82
2022/01/12 08:01:16;;;;;;;46.43;21.73;;;-0.10;99.90;;;;;;5172028;28;20045;-81
2022/01/12 08:03:50;;;;;;;;;;;-0.30;99.90;;;;;;5186631;28;20298;-81
2022/01/12 08:06:23;;;;;;;51.50;22.35;;;;;;;;;;5186071;28;19932;-82
2022/01/12 08:08:56;;;;;;;46.30;23.08;;;-0.60;99.90;;;;;;5135385;28;20059;-82
2022/01/12 08:11:31;;;;;;;;;;;-0.20;99.90;;;;;;5172331;28;20059;-82
2022/01/12 08:14:04;;;;;;;43.70;21.50;;;;;;;;;;5182160;28;20013;-83
2022/01/12 08:16:37;;;;;;;33.53;16.43;;;-0.10;99.90;;;;;;5169704;28;20041;-82
2022/01/12 08:19:10;;;;;;;;;;;-0.10;99.90;;;;;;5155209;28;20056;-82
2022/01/12 08:21:42;;;;;;;44.63;20.15;;;;;;;;;;5191684;28;19924;-83
2022/01/12 08:24:16;;;;;;;50.37;21.53;;;;;;;;;;5160323;28;20038;-82
2022/01/12 08:27:09;;;;;;;50.50;24.00;;;;;;;;;;5185758;28;20452;-81
2022/01/12 08:29:42;;;;;;;50.28;23.77;;;;;;;;;;5206079;28;21108;-82
2022/01/12 08:32:16;;;;;;;53.10;24.50;;;;;;;;;;5199330;28;20512;-85
2022/01/12 08:34:48;;;;;;;48.20;23.45;;;;;;;;;;5177901;28;20041;-83
2022/01/12 08:37:22;;;;;;;53.13;23.70;;;;;;;;;;5208675;28;20433;-81
2022/01/12 08:39:55;;;;;;;51.53;23.33;;;;;;;;;;5185834;28;20050;-81
2022/01/12 08:42:27;;;;;;;53.80;23.83;;;;;;;;;;5203984;28;20721;-81
2022/01/12 08:45:02;;;;;;;48.28;22.45;;;;;;;;;;5198920;28;20080;-80
2022/01/12 08:47:35;;;;;;;46.67;21.60;;;;;;;;;;5201887;28;20804;-83
2022/01/12 08:50:08;;;;;;;38.67;18.25;;;0.00;99.90;;;;;;5215793;28;20056;-82
2022/01/12 08:52:46;;;;;;;46.85;23.10;;;0.00;99.90;;;;;;5187229;28;20049;-82
2022/01/12 08:55:21;;;;;;;52.05;23.65;;;-0.20;99.90;;;;;;5187789;28;20052;-82
2022/01/12 08:57:56;;;;;;;44.50;20.95;;;;;;;;;;5172516;28;20049;-81
2022/01/12 09:00:29;;;;;;;43.78;22.88;;;;;;;;;;5189204;28;20045;-80
2022/01/12 09:03:02;;;;;;;44.37;21.97;;;;;;;;;;5191559;28;20053;-81
2022/01/12 09:05:35;;;;;;;42.42;20.13;;;;;;;;;;5174355;28;20041;-81
2022/01/12 09:08:08;;;;;;;50.80;22.50;;;;;;;;;;5180576;28;20052;-81
2022/01/12 09:10:40;;;;;;;49.23;22.93;;;;;;;;;;5177857;28;20048;-81
2022/01/12 09:13:13;;;;;;;49.20;22.85;;;;;;;;;;5199109;28;20038;-81
2022/01/12 09:15:46;;;;;;;47.00;22.58;;;;;;;;;;5153211;28;20083;-82
2022/01/12 09:18:19;;;;;;;44.33;21.52;;;;;;;;;;5168835;28;20061;-81
2022/01/12 09:20:53;;;;;;;55.17;21.63;;;;;;;;;;5173988;28;20075;-82
2022/01/12 09:23:26;;;;;;;45.70;21.90;;;;;;;;;;5171531;28;20041;-83
2022/01/12 09:25:59;;;;;;;41.10;20.23;;;;;;;;;;5174790;28;20041;-83
2022/01/12 09:28:32;;;;;;;47.22;23.05;;;0.20;99.90;;;;;;5178736;28;20060;-81
2022/01/12 09:31:05;;;;;;;44.60;22.77;;;;;;;;;;5179040;28;20048;-81
2022/01/12 09:33:38;;;;;;;37.92;19.30;;;;;;;;;;5194917;28;20056;-82
2022/01/12 09:36:11;;;;;;;36.93;18.83;;;;;;;;;;5193956;28;20057;-82
2022/01/12 09:38:44;;;;;;;39.05;19.67;;;;;;;;;;5185634;28;20052;-82
2022/01/12 09:41:16;;;;;;;44.22;21.27;;;;;;;;;;5157241;28;20045;-81
2022/01/12 09:43:50;;;;;;;39.40;19.93;;;;;;;;;;5167011;28;20049;-82
2022/01/12 09:46:25;;;;;;;42.38;21.77;;;0.50;99.90;;;;;;5183153;28;20049;-83
2022/01/12 09:49:03;;;;;;;40.53;20.13;;;0.40;99.90;;;;;;5169225;28;20747;-84
2022/01/12 09:51:36;;;;;;;44.78;22.08;;;;;;;;;;5178126;28;20885;-83
2022/01/12 09:54:10;;;;;;;43.67;21.47;;;;;;;;;;5168988;28;20057;-84
2022/01/12 09:56:43;;;;;;;42.13;19.30;;;;;;;;;;5199781;28;20052;-82
2022/01/12 09:59:17;;;;;;;39.20;20.35;;;;;;;;;;5155583;28;20044;-83
2022/01/12 10:01:52;;;;;;;45.60;21.88;;;0.80;99.90;;;;;;5193154;28;20056;-81
2022/01/12 10:04:27;;;;;;;39.83;19.95;;;0.60;99.90;;;;;;5210187;28;20048;-83
2022/01/12 10:07:04;;;;;;;41.97;20.20;;;0.50;99.90;;;;;;5208782;28;20630;-84
2022/01/12 10:09:46;;;;;;;45.10;22.17;;;0.30;99.90;;;;;;5169062;28;20056;-82
2022/01/12 10:12:21;;;;;;;43.50;21.38;;;0.50;99.90;;;;;;5189742;28;20052;-83
2022/01/12 10:15:13;;;;;;;41.47;20.27;;;0.50;99.90;;;;;;5168953;28;20761;-82
2022/01/12 10:17:47;;;;;;;47.70;22.45;;;0.50;99.90;;;;;;5202829;28;20040;-81
2022/01/12 10:20:23;;;;;;;44.70;22.40;;;0.50;99.90;;;;;;5188474;28;20856;-83
2022/01/12 10:23:09;;;;;;;40.03;19.83;;;0.50;99.90;;;;;;5178559;28;20063;-83
2022/01/12 10:25:47;;;;;;;42.28;19.92;;;0.50;99.90;;;;;;5187208;28;20128;-82
2022/01/12 10:28:22;;;;;;;39.45;19.98;;;0.50;99.90;;;;;;5180652;28;20053;-83
2022/01/12 10:31:03;;;;;;;39.05;18.85;;;0.30;99.90;;;;;;5178077;28;20053;-82
2022/01/12 10:33:36;;;;;;;40.00;20.13;;;;;;;;;;5191316;28;20653;-82
2022/01/12 10:36:10;;;;;;;42.30;19.40;;;;;;;;;;5156390;28;20078;-81
2022/01/12 10:38:42;;;;;;;40.95;20.58;;;;;;;;;;5156653;28;20045;-82
2022/01/12 10:41:15;;;;;;;43.55;19.45;;;0.50;99.90;;;;;;5172476;28;20045;-81
2022/01/12 10:43:48;;;;;;;42.07;19.10;;;;;;;;;;5181996;28;20060;-82
2022/01/12 10:46:25;;;;;;;43.10;19.40;;;;;;;;;;5182864;28;21291;-82
2022/01/12 10:48:59;;;;;;;43.00;19.90;;;;;;;;;;5154819;28;20064;-83
2022/01/12 10:51:32;;;;;;;38.50;17.83;;;;;;;;;;5190720;28;20874;-82
2022/01/12 10:54:05;;;;;;;41.08;19.73;;;;;;;;;;5184234;28;20060;-83
2022/01/12 10:56:40;;;;;;;37.03;17.63;;;0.70;99.90;;;;;;5191870;28;20045;-83
2022/01/12 10:59:17;;;;;;;42.15;20.52;;;0.60;99.90;;;;;;5181184;28;20045;-82
2022/01/12 11:01:50;;;;;;;40.65;20.15;;;;;;;;;;5170693;28;20057;-84
2022/01/12 11:04:24;;;;;;;39.33;19.08;;;;;;;;;;5183554;28;20452;-83
2022/01/12 11:06:56;;;;;;;47.97;21.92;;;;;;;;;;5191699;28;20060;-82
2022/01/12 11:09:29;;;;;;;42.90;18.75;;;;;;;;;;5198797;28;20060;-83
2022/01/12 11:12:02;;;;;;;39.67;17.77;;;;;;;;;;5194293;28;21050;-83
2022/01/12 11:14:35;;;;;;;37.88;17.73;;;;;;;;;;5169261;28;20795;-82
2022/01/12 11:17:08;;;;;;;39.65;18.42;;;;;;;;;;5173889;28;20047;-83
2022/01/12 11:19:50;;;;;;;38.75;17.95;;;0.80;99.90;;;;;;5155375;28;20052;-82
2022/01/12 11:22:42;;;;;;;40.30;17.48;;;0.90;99.90;;;;;;5157635;28;20515;-82
2022/01/12 11:25:28;;;;;;;33.63;16.70;;;0.80;99.90;;;;;;5201224;28;20057;-84
2022/01/12 11:28:15;;;;;;;37.90;18.48;;;0.80;99.90;;;;;;5195499;28;20118;-83
2022/01/12 11:30:51;;;;;;;37.90;19.08;;;1.30;99.90;;;;;;5155660;28;20052;-81
2022/01/12 11:33:29;;;;;;;41.00;19.92;;;0.80;99.90;;;;;;5191187;28;20456;-81
2022/01/12 11:36:12;;;;;;;38.72;18.13;;;0.90;99.90;;;;;;5186822;28;20060;-82
2022/01/12 11:38:50;;;;;;;41.25;20.20;;;1.10;99.90;;;;;;5172912;28;20056;-82
2022/01/12 11:41:24;;;;;;;41.70;19.83;;;1.10;99.90;;;;;;5137752;28;20524;-83
2022/01/12 11:44:12;;;;;;;44.30;20.80;;;1.20;99.90;;;;;;5179060;28;20063;-83
2022/01/12 11:46:46;;;;;;;41.88;19.50;;;;;;;;;;5182731;28;20041;-82
2022/01/12 11:49:43;;;;;;;40.22;20.13;;;1.40;99.90;;;;;;5178479;28;20056;-83
2022/01/12 11:52:19;;;;;;;44.67;20.13;;;1.30;99.90;;;;;;5183717;28;20049;-81
2022/01/12 11:54:53;;;;;;;40.03;19.48;;;1.40;99.60;;;;;;5172586;28;20056;-83
2022/01/12 11:57:34;;;;;;;39.58;19.52;;;1.20;98.60;;;;;;5143072;28;20922;-83
2022/01/12 12:00:13;;;;;;;37.90;19.40;;;1.10;98.60;;;;;;5154662;28;20404;-84
2022/01/12 12:02:49;;;;;;;42.35;20.08;;;1.30;98.90;;;;;;5173333;28;20127;-83
2022/01/12 12:05:26;;;;;;;46.20;20.75;;;1.10;98.90;;;;;;5184452;28;20052;-83
2022/01/12 12:08:03;;;;;;;40.10;20.05;;;1.10;99.50;;;;;;5197807;28;20053;-83
2022/01/12 12:10:38;;;;;;;46.72;20.63;;;1.20;99.10;;;;;;5213729;28;20041;-82
2022/01/12 12:13:13;;;;;;;47.92;24.58;;;;;;;;;;5217337;28;20068;-82
2022/01/12 12:15:46;;;;;;;46.00;22.48;;;;;;;;;;5173344;28;20045;-85
2022/01/12 12:18:24;;;;;;;44.88;20.23;;;;;;;;;;5171655;28;20053;-83
2022/01/12 12:20:56;;;;;;;43.63;20.17;;;;;;;;;;5186945;28;20051;-83
2022/01/12 12:23:31;;;;;;;43.22;21.08;;;;;;;;;;5201231;28;20056;-84
2022/01/12 12:26:10;;;;;;;41.45;19.55;;;1.30;98.60;;;;;;5201592;28;20041;-84
2022/01/12 12:28:47;;;;;;;42.25;20.00;;;;;;;;;;5196488;28;20064;-84
2022/01/12 12:31:22;;;;;;;46.50;20.92;;;1.20;98.20;;;;;;5192129;28;20041;-85
2022/01/12 12:34:15;;;;;;;43.00;21.05;;;;;;;;;;5180871;28;20509;-84
2022/01/12 12:36:47;;;;;;;47.07;21.47;;;;;;;;;;5157947;28;20064;-85
2022/01/12 12:39:21;;;;;;;49.92;23.33;;;1.40;98.60;;;;;;5159649;28;20041;-83
2022/01/12 12:41:54;;;;;;;53.58;24.38;;;;;;;;;;5180512;28;20060;-86
2022/01/12 12:44:29;;;;;;;52.87;23.50;;;1.30;98.40;;;;;;5150068;28;20057;-85
2022/01/12 12:47:05;;;;;;;53.47;25.17;;;;;;;;;;5160881;28;20696;-83
2022/01/12 12:49:51;;;;;;;49.00;23.85;;;1.20;98.70;;;;;;5161179;28;20053;-84
2022/01/12 12:52:33;;;;;;;54.47;24.60;;;1.10;98.70;;;;;;5146802;28;20064;-84
2022/01/12 12:55:13;;;;;;;52.85;24.80;;;1.20;98.80;;;;;;5171154;28;20068;-84
2022/01/12 12:57:57;;;;;;;58.33;22.88;;;1.10;98.90;;;;;;5172612;28;20076;-84
2022/01/12 13:00:30;;;;;;;52.72;24.80;;;;;;;;;;5142951;28;20870;-84
2022/01/12 13:03:06;;;;;;;45.83;22.23;;;;;;;;;;4907803;28;10000693;-83
2022/01/12 13:05:43;;;;;;;55.50;24.38;;;-1.00;98.20;;;;;;5160824;28;20854;-85
2022/01/12 13:08:17;;;;;;;51.78;24.13;;;;;;;;;;5158188;28;20579;-84
2022/01/12 13:10:49;;;;;;;58.58;25.63;;;;;;;;;;5142004;28;20412;-85
2022/01/12 13:13:22;;;;;;;55.08;25.17;;;;;;;;;;5158044;28;20528;-85
2022/01/12 13:15:58;;;;;;;57.73;24.60;;;1.00;98.50;;;;;;5182198;28;20045;-84
2022/01/12 13:18:34;;;;;;;56.17;25.10;;;;;;;;;;5194448;28;20045;-83
2022/01/12 13:21:07;;;;;;;55.60;25.48;;;;;;;;;;5151978;28;20049;-84
2022/01/12 13:23:40;;;;;;;47.10;21.75;;;;;;;;;;5154495;28;20049;-82
2022/01/12 13:26:15;;;;;;;46.70;22.30;;;0.80;98.50;;;;;;5167607;28;20056;-84
2022/01/12 13:28:48;;;;;;;46.92;22.45;;;;;;;;;;5156674;28;20049;-84
2022/01/12 13:31:22;;;;;;;48.60;23.10;;;0.80;97.80;;;;;;5128554;28;20177;-84
2022/01/12 13:33:59;;;;;;;49.40;22.20;;;0.80;98.10;;;;;;5159565;28;20053;-83
2022/01/12 13:36:33;;;;;;;53.67;25.30;;;0.80;98.30;;;;;;5122278;28;20048;-84
2022/01/12 13:39:08;;;;;;;57.72;24.88;;;0.90;98.30;;;;;;5123307;28;20149;-83
2022/01/12 13:41:45;;;;;;;51.63;23.52;;;0.90;98.70;;;;;;5135329;28;20097;-85
2022/01/12 13:44:20;;;;;;;47.65;21.60;;;1.00;98.90;;;;;;5152705;28;20080;-83
2022/01/12 13:47:22;;;;;;;50.97;23.00;;;1.00;99.30;;;;;;5142765;28;20053;-83
2022/01/12 13:50:09;;;;;;;45.10;20.88;;;0.80;98.00;;;;;;5159097;28;20045;-85
2022/01/12 13:52:53;;;;;;;47.97;23.02;;;0.60;98.30;;;;;;5159607;28;20046;-83
2022/01/12 13:55:26;;;;;;;50.65;22.80;;;;;;;;;;5135189;28;20685;-84
2022/01/12 13:58:06;;;;;;;50.07;22.40;;;0.50;99.20;;;;;;5172274;28;20057;-84
2022/01/12 14:00:39;;;;;;;52.13;24.05;;;;;;;;;;5144671;28;20048;-84
2022/01/12 14:03:16;;;;;;;47.50;23.70;;;-0.60;98.90;;;;;;5126761;28;20050;-84
2022/01/12 14:05:57;;;;;;;52.63;23.40;;;;;;;;;;5165647;28;20045;-84
2022/01/12 14:08:41;;;;;;;53.28;24.20;;;;;;;;;;5118070;28;20053;-84
2022/01/12 14:11:15;;;;;;;47.50;22.48;;;;;;;;;;5168940;28;20041;-84
2022/01/12 14:13:48;;;;;;;;;;;0.80;99.50;;;;;;5172838;28;21160;-84
2022/01/12 14:16:21;;;;;;;53.20;23.60;;;;;;;;;;5144740;28;20400;-84
2022/01/12 14:19:00;;;;;;;54.90;22.00;;;0.70;98.80;;;;;;5125321;28;20583;-83
2022/01/12 14:21:33;;;;;;;50.35;22.30;;;;;;;;;;5156709;28;20049;-84
2022/01/12 14:24:10;;;;;;;48.38;22.52;;;0.80;99.40;;;;;;5127429;28;20057;-83
2022/01/12 14:26:43;;;;;;;49.53;21.60;;;;;;;;;;5146841;28;20049;-83
2022/01/12 14:29:16;;;;;;;49.35;20.83;;;;;;;;;;5117457;28;20500;-83
2022/01/12 14:31:49;;;;;;;49.33;23.23;;;;;;;;;;5136983;28;20049;-83
2022/01/12 14:34:23;;;;;;;46.60;22.55;;;;;;;;;;5102682;28;20695;-84
2022/01/12 14:36:55;;;;;;;;;;;0.80;99.50;;;;;;5108222;28;20053;-84
2022/01/12 14:39:29;;;;;;;54.00;24.63;;;;;;;;;;5156667;28;19936;-84
2022/01/12 14:42:03;;;;;;;56.47;23.08;;;;;;;;;;5150866;28;20045;-83
2022/01/12 14:44:39;;;;;;;50.25;22.92;;;;;;;;;;5141134;28;20057;-84
2022/01/12 14:47:13;;;;;;;50.40;23.27;;;;;;;;;;5114192;28;20477;-84
2022/01/12 14:49:47;;;;;;;53.92;24.55;;;;;;;;;;5150210;28;20061;-84
2022/01/12 14:52:24;;;;;;;55.88;23.88;;;;;;;;;;5156048;28;20864;-86
2022/01/12 14:54:57;;;;;;;55.58;22.70;;;;;;;;;;5135551;28;20057;-83
2022/01/12 14:57:30;;;;;;;55.65;24.27;;;;;;;;;;5186806;28;20056;-83
2022/01/12 15:00:08;;;;;;;47.77;22.90;;;0.60;99.90;;;;;;5181791;28;20060;-83
2022/01/12 15:02:41;;;;;;;48.60;23.48;;;;;;;;;;5159843;28;20307;-84
2022/01/12 15:05:19;;;;;;;57.45;24.83;;;;;;;;;;5165679;28;20056;-83
2022/01/12 15:07:52;;;;;;;56.50;25.80;;;;;;;;;;5201404;28;20057;-83
2022/01/12 15:10:26;;;;;;;59.17;28.40;;;0.60;99.90;;;;;;5154001;28;20524;-84
2022/01/12 15:13:22;;;;;;;66.22;28.35;;;0.50;99.90;;;;;;5165480;28;20059;-85
2022/01/12 15:15:58;;;;;;;61.92;28.10;;;0.50;99.90;;;;;;5161490;28;20068;-83
2022/01/12 15:18:32;;;;;;;63.13;28.48;;;;;;;;;;5164336;28;20089;-84
2022/01/12 15:21:09;;;;;;;65.22;28.40;;;;;;;;;;5126336;28;20083;-84
2022/01/12 15:23:41;;;;;;;68.90;30.83;;;;;;;;;;5165337;28;20053;-85
2022/01/12 15:26:15;;;;;;;66.63;29.63;;;;;;;;;;5132838;28;20052;-84
2022/01/12 15:28:48;;;;;;;69.07;28.98;;;;;;;;;;5160971;28;20379;-82
2022/01/12 15:31:20;;;;;;;62.60;29.07;;;;;;;;;;5155985;28;20180;-83
2022/01/12 15:33:53;;;;;;;61.03;27.70;;;;;;;;;;5157840;28;20052;-83
2022/01/12 15:36:26;;;;;;;64.30;27.03;;;;;;;;;;4479183;28;10000284;-81
2022/01/12 15:39:00;;;;;;;;;;;0.20;99.90;;;;;;5179887;28;20057;-81
2022/01/12 15:41:33;;;;;;;62.85;26.73;;;0.00;99.90;;;;;;5176681;28;19929;-82
2022/01/12 15:44:06;;;;;;;62.22;26.70;;;;;;;;;;5136085;28;20049;-83
2022/01/12 15:46:39;;;;;;;59.13;27.73;;;;;;;;;;5157955;28;20068;-83
2022/01/12 15:49:12;;;;;;;65.30;29.83;;;;;;;;;;5150308;28;20065;-84
2022/01/12 15:51:45;;;;;;;64.13;27.20;;;;;;;;;;5137860;28;20060;-83